Kahului, HI

9:55 AM HST on April 19, 2015 (GMT -1000)
Kahului | | Change Station
CLOSE
Current Station
Airport
Location: Kahului,
Elevation: 49 ft
Nearby Weather Stations

Elev 49 ft 20.90 °N, 156.43 °W | Updated 1 hour ago

Scattered Clouds
Scattered Clouds
76 °F
Feels Like 76 °F
N
17
Wind Variable Wind from ENE
Gusts 29 mph

Today
High -- | Low -- °F
--% Chance of Precip.
Yesterday
High -- | Low -- °F
Precip. -- in
6:04 AM 6:46 PM
New Moon, 2% visible
Pressure 30.17 in
Visibility 10.0 miles
Clouds Few 3200 ft
Scattered Clouds 5000 ft
Dew Point 64 °F
Humidity 67%
Rainfall 0.04 in
Snow Depth Not available.
UV 4 out of 12
Pollen Not available.
Air Quality Not available.
Flu Activity Regional
METAR PHOG 191854Z 07015G25KT 10SM FEW032 SCT050 24/18 A3015 RMK AO2 PK WND 07026/1827 SLP214 T02440178

More Conditions Fewer Conditions

Pressure 30.17 in
Visibility 10.0 miles
Clouds Few 3200 ft
Scattered Clouds 5000 ft
Dew Point 64 °F
Humidity 67%
Rainfall 0.04 in
Snow Depth Not available.
UV 4 out of 12
Pollen Not available.
Air Quality Not available.
Flu Activity Regional
METAR PHOG 191854Z 07015G25KT 10SM FEW032 SCT050 24/18 A3015 RMK AO2 PK WND 07026/1827 SLP214 T02440178

More Conditions Fewer Conditions

10-Day Weather Forecast

Almanac

Astronomy

Apr. 19, 2015 Rise Set
Actual Time
Civil Twilight
Nautical Twilight
Astronomical Twilight
Moon
Length of Visible Light
Length of Day
Tomorrow will be .
, % of the Moon is Illuminated

Today's Extremes

State Highs State Lows

Community

WunderPhotos

Upload Photos

1,814,950 photos uploaded!

WunderBlogs® & News

Nearby

Air Quality

  Air Quality AQ Index Pollutant
Not available.

Snow Depth

Station Depth Elevation

Earthquake Activity

City Distance Mag. Time & Date
Minimum magnitude displayed is 2.5.

Coastal Water Temperatures

Place Temperature

Stations

Nearby Weather Stations

Station Location Temp. Windchill Dew Point Humidity Wind Precip. Elev Updated Type